createdAt,value
2023-03-16T15:43:41.639Z,94926.00
2023-03-16T15:50:06.430Z,94922.00
2023-03-16T15:54:06.357Z,94921.00
2023-03-16T15:58:06.316Z,94922.00
2023-03-16T16:02:06.287Z,94919.00
2023-03-16T16:06:06.254Z,94924.00
2023-03-16T16:10:06.291Z,94921.00
2023-03-16T16:14:06.274Z,94922.00
2023-03-16T16:18:20.768Z,94926.00
2023-03-16T16:22:07.370Z,94926.00
2023-03-16T16:26:06.346Z,94932.00
2023-03-16T16:30:06.307Z,94930.00
2023-03-16T16:34:06.424Z,94934.00
2023-03-16T16:38:06.612Z,94936.00
2023-03-16T16:42:06.744Z,94938.00
2023-03-16T16:46:06.910Z,94942.00
2023-03-16T16:50:07.064Z,94942.00
2023-03-16T16:54:07.330Z,94950.00
2023-03-16T16:58:12.345Z,94954.00
2023-03-16T17:02:08.351Z,94958.00
2023-03-16T17:06:07.332Z,94962.00
2023-03-16T17:10:07.276Z,94968.00
2023-03-16T17:14:07.389Z,94974.00
2023-03-16T17:18:07.573Z,94981.00
2023-03-16T17:22:07.714Z,94987.00
2023-03-16T17:26:07.993Z,94989.00
2023-03-16T17:30:08.102Z,94999.00
2023-03-16T17:34:08.301Z,95003.00
2023-03-16T17:38:08.497Z,95015.00
2023-03-16T17:42:08.648Z,95021.00
2023-03-16T17:46:08.859Z,95024.00
2023-03-16T17:50:09.198Z,95032.00
2023-03-16T17:54:09.295Z,95034.00
2023-03-16T17:58:09.289Z,95038.00
2023-03-16T18:02:09.237Z,95042.00
2023-03-16T18:06:09.200Z,95042.00
2023-03-16T18:10:09.134Z,95046.00
2023-03-16T18:14:09.099Z,95054.00
2023-03-16T18:18:09.088Z,95054.00
2023-03-16T18:22:09.043Z,95058.00
2023-03-16T18:26:08.995Z,95062.00
2023-03-16T18:30:08.954Z,95062.00
2023-03-16T18:34:08.988Z,95066.00
2023-03-16T18:38:09.215Z,95074.00
2023-03-16T18:42:09.449Z,95076.00
2023-03-16T18:46:09.627Z,95078.00
2023-03-16T18:50:09.860Z,95081.00
2023-03-16T18:54:09.825Z,95083.00
2023-03-16T18:58:09.788Z,95085.00
2023-03-16T19:02:09.868Z,95087.00
2023-03-16T19:06:09.703Z,95085.00
2023-03-16T19:10:09.686Z,95095.00
2023-03-16T19:14:09.627Z,95093.00
2023-03-16T19:18:09.629Z,95095.00
2023-03-16T19:22:09.550Z,95097.00
2023-03-16T19:26:09.532Z,95101.00
2023-03-16T19:30:09.666Z,95105.00
2023-03-16T19:34:09.435Z,95103.00
2023-03-16T19:38:09.442Z,95111.00
2023-03-16T19:42:11.353Z,95115.00
2023-03-16T19:46:09.359Z,95115.00
2023-03-16T19:50:09.290Z,95117.00
2023-03-16T19:54:09.426Z,95121.00
2023-03-16T19:58:09.445Z,95126.00
2023-03-16T20:02:09.496Z,95125.00
2023-03-16T20:06:09.471Z,95128.00
2023-03-16T20:10:09.537Z,95128.00
2023-03-16T20:14:09.375Z,95126.00
2023-03-16T20:18:09.358Z,95130.00
2023-03-16T20:22:09.310Z,95130.00
2023-03-16T20:26:09.297Z,95142.00
2023-03-16T20:30:09.245Z,95144.00
2023-03-16T20:34:09.211Z,95154.00
2023-03-16T20:38:09.174Z,95160.00
2023-03-16T20:42:09.140Z,95160.00
2023-03-16T20:46:09.098Z,95168.00
2023-03-16T20:50:09.045Z,95168.00
2023-03-16T20:54:08.998Z,95174.00
2023-03-16T20:58:08.962Z,95174.00
2023-03-16T21:02:08.954Z,95176.00
2023-03-16T21:06:08.933Z,95178.00
2023-03-16T21:10:08.868Z,95187.00
2023-03-16T21:14:08.828Z,95183.00
2023-03-16T21:18:08.812Z,95178.00
2023-03-16T21:22:08.761Z,95191.00
2023-03-16T21:26:08.737Z,95189.00
2023-03-16T21:30:08.704Z,95189.00
2023-03-16T21:34:08.644Z,95187.00
2023-03-16T21:38:08.594Z,95197.00
2023-03-16T21:42:08.592Z,95195.00
2023-03-16T21:46:08.548Z,95189.00
2023-03-16T21:50:08.483Z,95189.00
2023-03-16T21:54:09.181Z,95187.00
2023-03-16T21:58:08.407Z,95179.00
2023-03-16T22:02:08.437Z,95187.00
2023-03-16T22:06:08.361Z,95187.00
2023-03-16T22:10:08.392Z,95183.00
2023-03-16T22:14:08.292Z,95183.00
2023-03-16T22:18:08.352Z,95181.00
2023-03-16T22:22:08.388Z,95187.00
2023-03-16T22:26:08.416Z,95178.00
2023-03-16T22:30:08.455Z,95179.00
2023-03-16T22:34:08.484Z,95183.00
2023-03-16T22:38:08.545Z,95179.00
2023-03-16T22:42:08.564Z,95176.00
2023-03-16T22:46:08.617Z,95179.00
2023-03-16T22:50:08.668Z,95176.00
2023-03-16T22:54:08.734Z,95170.00
2023-03-16T22:58:08.724Z,95174.00
2023-03-16T23:02:08.810Z,95170.00
2023-03-16T23:06:09.200Z,95164.00
2023-03-16T23:10:08.898Z,95166.00
2023-03-16T23:14:08.969Z,95162.00
2023-03-16T23:18:09.063Z,95164.00
2023-03-16T23:22:09.129Z,95166.00
2023-03-16T23:26:09.209Z,95164.00
2023-03-16T23:30:09.287Z,95166.00
2023-03-16T23:34:09.356Z,95168.00
2023-03-16T23:38:09.477Z,95172.00
2023-03-16T23:42:09.548Z,95168.00
2023-03-16T23:46:09.658Z,95172.00
2023-03-16T23:50:09.714Z,95164.00
2023-03-16T23:54:09.823Z,95166.00
2023-03-16T23:58:09.904Z,95158.00
